Airfield :
LOGIN :

Register | Disclaimer

   EN    FR    IT 

 










Legend :    VFR   Marginal VFR   IFR   Intensive IFR   Very Intensive IFR
Visi :
Ceiling :
>= 8 km
>= 3000ft
5 to 8 km
1000 to 3000 ft
1500m to 5 km
500 to 1000 ft
800 to 1500m
200 to 500 ft
< 800m
< 200 ft
Symbols :   Thunderstorms  Fog  Heavy snow  Heavy precipitations  Wind > 20 kt
SIGMETs :     Misc.  Thunderstorms  Icing  Turbulence  Mountain Waves  Volcanic Ashes






- Airport Elevation : 699 ft
- IATA code : PAD


EDLP - Paderborn Lippstadt

CURRENT METAR :
  • 311450Z 10010KT CAVOK 19/04 Q1022

EXPIRED METARs :
  • 311420Z 07011KT 040V100 CAVOK 18/04 Q1023
  • 311350Z 03010KT CAVOK 19/04 Q1023
  • 311320Z 07009KT 350V120 9999 FEW049 18/04 Q1023
  • 311250Z 05009KT 360V100 9999 FEW047 18/04 Q1023
  • 311220Z 07009KT 020V100 9999 SCT047 17/04 Q1023

TAF TAF EDLP
Valid from the 31 at 12:00 until the 01 at 12:00 UTC


311100Z 3112/0112 05010KT CAVOK
BECMG 3117/3119 08004KT
BECMG 0107/0110 07010KT



MET'MAP, your aeronautical weather chart ! - Copyright ORBIFLY December 2007 - Disclaimer

ORBIFLY MET'MAP TEAM :

Programming & Development : Alexandra Zaïnal
Concept & original design : Baudouin d'Aumeries
Assistance for programming : Marc-Olivier Méhu
Technical & hardware support : Manuel Goepfert

Contact : metmap@orbifly.com




SOURCES & CREDITS :

   NOAA